1926 NOT_NAMED (1926266N12143)


IBTrACS version v04r00. Visit IBTrACS website for data access.
Please direct all questions to the IBTrACS Q and A forum

Storm track - Intensity - Wind Radii - Intensity Data - Source Data - All data

Summary Information

Storm ID 1926266N12143
Start Sep 22 22Z
Landfall Sep 26 18Z
End Sep 27 22Z
ATCF IDs
Track status Best track data.

Storm track plot

Map of storm track

Intensity plots

No Intensity information for this storm


Radial wind information

No radial wind information for this storm


Position and Intensity Table

BASIN ISO_TIME_________ NATURE LAT LON
degrees north degrees east
WP 1926-09-22 22:00:00 NR 11.90 142.80
WP 1926-09-23 00:00:00 NR 11.94 142.51
WP 03:00:00 NR 12.00 142.09
WP 06:00:00 NR 12.05 141.69
WP 09:00:00 NR 12.09 141.32
WP 10:00:00 NR 12.10 141.20
WP 12:00:00 NR 12.12 140.98
WP 15:00:00 NR 12.14 140.67
WP 18:00:00 NR 12.16 140.33
WP 21:00:00 NR 12.19 139.95
WP 22:00:00 NR 12.20 139.80
WP 1926-09-24 00:00:00 NR 12.24 139.45
WP 03:00:00 NR 12.31 138.87
WP 06:00:00 NR 12.39 138.24
WP 09:00:00 NR 12.47 137.61
WP 10:00:00 NR 12.50 137.40
WP 12:00:00 NR 12.53 137.06
WP 15:00:00 NR 12.58 136.57
WP 18:00:00 NR 12.65 136.04
WP 21:00:00 NR 12.75 135.43
WP 22:00:00 NR 12.80 135.20
WP 1926-09-25 00:00:00 NR 12.91 134.66
WP 03:00:00 NR 13.12 133.75
WP 06:00:00 NR 13.36 132.78
WP 09:00:00 NR 13.61 131.81
WP 10:00:00 NR 13.70 131.50
WP 12:00:00 NR 13.86 130.94
WP 15:00:00 NR 14.11 130.13
WP 18:00:00 NR 14.36 129.32
WP 21:00:00 NR 14.61 128.49
WP 22:00:00 NR 14.70 128.20
WP 1926-09-26 00:00:00 NR 14.83 127.56
WP 03:00:00 NR 15.03 126.56
WP 06:00:00 NR 15.26 125.56
WP 09:00:00 NR 15.57 124.60
WP 10:00:00 NR 15.70 124.30
WP 12:00:00 NR 16.02 123.73
WP 15:00:00 NR 16.59 122.93
WP 18:00:00 NR 17.22 122.20
WP 21:00:00 NR 17.88 121.52
WP 22:00:00 NR 18.10 121.30
WP 1926-09-27 00:00:00 NR 18.54 120.92
WP 03:00:00 NR 19.21 120.40
WP 06:00:00 NR 19.83 119.87
WP 09:00:00 NR 20.36 119.24
WP 10:00:00 NR 20.50 119.00
WP 12:00:00 NR 20.74 118.45
WP 15:00:00 NR 20.97 117.49
WP 18:00:00 NR 21.11 116.42
WP 21:00:00 NR 21.18 115.29
WP 22:00:00 NR 21.20 114.90

Source Information

Agency Information
USA
TOKYO
CMA
HKO
NEWDELHI
REUNION
BOM
NADI
WELLINGTON
DS824
TD9636 cons_worldwide_trop_cyclone_18710101-19891231-003:Line=7660
TD9635
NEUMANN
MLC

All available IBTrACS Data

SEASON BASIN SUBBASIN ISO_TIME_________ NATURE LAT LON DIST2LAND LANDFALL IFLAG USA SSHS TD9636 LAT TD9636 LON TD9636 STAGE STORM SPEED STORM DIR
Year degrees north degrees east km km 1 degrees north degrees east kts degrees
1926 WP MM 1926-09-22 22:00:00 NR 11.90 142.80 1595 1585 __________O___ -1 11.90 142.80 3 8 278
1926 WP MM 1926-09-23 00:00:00 NR 11.94 142.51 1585 1583 __________P___ -1 11.94 142.51 3 8 278
1926 WP MM 03:00:00 NR 12.00 142.09 1583 1570 __________P___ -1 12.00 142.09 3 8 278
1926 WP MM 06:00:00 NR 12.05 141.69 1570 1563 __________P___ -1 12.05 141.69 3 8 277
1926 WP MM 09:00:00 NR 12.09 141.32 1563 1559 __________P___ -1 12.09 141.32 3 7 276
1926 WP MM 10:00:00 NR 12.10 141.20 1559 1551 __________O___ -1 12.10 141.20 4 7 275
1926 WP MM 12:00:00 NR 12.12 140.98 1551 1539 __________P___ -1 12.12 140.98 4 6 274
1926 WP MM 15:00:00 NR 12.14 140.67 1539 1528 __________P___ -1 12.14 140.67 4 6 274
1926 WP MM 18:00:00 NR 12.16 140.33 1535 1521 __________P___ -1 12.16 140.33 4 7 274
1926 WP MM 21:00:00 NR 12.19 139.95 1521 1517 __________P___ -1 12.19 139.95 4 8 275
1926 WP MM 22:00:00 NR 12.20 139.80 1517 1492 __________O___ -1 12.20 139.80 4 10 276
1926 WP MM 1926-09-24 00:00:00 NR 12.24 139.45 1492 1430 __________P___ -1 12.24 139.45 4 11 277
1926 WP MM 03:00:00 NR 12.31 138.87 1430 1359 __________P___ -1 12.31 138.87 4 12 277
1926 WP MM 06:00:00 NR 12.39 138.24 1359 1296 __________P___ -1 12.39 138.24 4 12 278
1926 WP MM 09:00:00 NR 12.47 137.61 1296 1274 __________P___ -1 12.47 137.61 4 12 278
1926 WP MM 10:00:00 NR 12.50 137.40 1274 1242 __________O___ -1 12.50 137.40 4 11 276
1926 WP MM 12:00:00 NR 12.53 137.06 1242 1189 __________P___ -1 12.53 137.06 4 10 276
1926 WP MM 15:00:00 NR 12.58 136.57 1189 1126 __________P___ -1 12.58 136.57 4 10 277
1926 WP MM 18:00:00 NR 12.65 136.04 1126 1064 __________P___ -1 12.65 136.04 4 11 279
1926 WP MM 21:00:00 NR 12.75 135.43 1064 1043 __________P___ -1 12.75 135.43 4 13 280
1926 WP MM 22:00:00 NR 12.80 135.20 1043 991 __________O___ -1 12.80 135.20 4 15 282
1926 WP MM 1926-09-25 00:00:00 NR 12.91 134.66 991 901 __________P___ -1 12.91 134.66 4 17 283
1926 WP MM 03:00:00 NR 13.12 133.75 901 801 __________P___ -1 13.12 133.75 4 19 284
1926 WP MM 06:00:00 NR 13.36 132.78 803 700 __________P___ -1 13.36 132.78 4 20 285
1926 WP MM 09:00:00 NR 13.61 131.81 700 682 __________P___ -1 13.61 131.81 4 19 285
1926 WP MM 10:00:00 NR 13.70 131.50 671 615 __________O___ -1 13.70 131.50 4 18 286
1926 WP MM 12:00:00 NR 13.86 130.94 615 541 __________P___ -1 13.86 130.94 4 17 287
1926 WP MM 15:00:00 NR 14.11 130.13 541 479 __________P___ -1 14.11 130.13 4 16 288
1926 WP MM 18:00:00 NR 14.36 129.32 479 421 __________P___ -1 14.36 129.32 4 17 288
1926 WP MM 21:00:00 NR 14.61 128.49 421 404 __________P___ -1 14.61 128.49 4 17 287
1926 WP MM 22:00:00 NR 14.70 128.20 404 359 __________O___ -1 14.70 128.20 4 19 283
1926 WP MM 1926-09-26 00:00:00 NR 14.83 127.56 359 267 __________P___ -1 14.83 127.56 4 19 282
1926 WP MM 03:00:00 NR 15.03 126.56 267 193 __________P___ -1 15.03 126.56 4 20 282
1926 WP MM 06:00:00 NR 15.26 125.56 201 173 __________P___ -1 15.26 125.56 4 20 286
1926 WP MM 09:00:00 NR 15.57 124.60 181 179 __________P___ -1 15.57 124.60 4 19 290
1926 WP MM 10:00:00 NR 15.70 124.30 190 161 __________O___ -1 15.70 124.30 4 19 298
1926 WP MM 12:00:00 NR 16.02 123.73 161 54 __________P___ -1 16.02 123.73 4 19 304
1926 WP MM 15:00:00 NR 16.59 122.93 54 0 __________P___ -1 16.59 122.93 4 19 309
1926 WP MM 18:00:00 NR 17.22 122.20 0 0 __________P___ -1 17.22 122.20 4 19 314
1926 WP MM 21:00:00 NR 17.88 121.52 0 0 __________P___ -1 17.88 121.52 4 18 316
1926 WP MM 22:00:00 NR 18.10 121.30 0 0 __________O___ -1 18.10 121.30 4 17 319
1926 WP MM 1926-09-27 00:00:00 NR 18.54 120.92 0 0 __________P___ -1 18.54 120.92 4 17 322
1926 WP MM 03:00:00 NR 19.21 120.40 79 79 __________P___ -1 19.21 120.40 4 16 322
1926 WP MM 06:00:00 NR 19.83 119.87 164 179 __________P___ -1 19.83 119.87 4 16 316
1926 WP MM 09:00:00 NR 20.36 119.24 228 228 __________P___ -1 20.36 119.24 4 16 309
1926 WP MM 10:00:00 NR 20.50 119.00 235 235 __________O___ -1 20.50 119.00 4 17 297
1926 WP MM 12:00:00 NR 20.74 118.45 264 236 __________P___ -1 20.74 118.45 4 18 289
1926 WP MM 15:00:00 NR 20.97 117.49 236 189 __________P___ -1 20.97 117.49 4 19 281
1926 WP MM 18:00:00 NR 21.11 116.42 189 151 __________P___ -1 21.11 116.42 4 21 276
1926 WP MM 21:00:00 NR 21.18 115.29 151 142 __________P___ -1 21.18 115.29 4 21 274
1926 WP MM 22:00:00 NR 21.20 114.90 137 __________O___ -1 21.20 114.90 4 22 273